Time;durP1;ratioP1;P1;durP2;ratioP2;P2;SDS_P1;SDS_P2;PMS_P1;PMS_P2;Temp;Humidity;BMP_temperature;BMP_pressure;BME280_temperature;BME280_humidity;BME280_pressure;Samples;Min_cycle;Max_cycle;Signal;HPM_P1;HPM_P2
2023/07/29 08:29:42;;;;;;;2.42;1.05;;;;;;;19.46;85.04;100800.53;4970885;28;124678;-26
2023/07/29 08:32:08;;;;;;;1.42;0.85;;;;;;;19.82;85.32;100795.13;4972110;28;99532;-27
2023/07/29 08:34:33;;;;;;;1.48;0.88;;;;;;;20.18;83.63;100797.88;4972602;28;96539;-26
2023/07/29 08:36:59;;;;;;;2.03;0.90;;;;;;;20.30;82.50;100786.47;4972455;28;96878;-27
2023/07/29 08:39:25;;;;;;;2.10;1.02;;;;;;;20.41;82.03;100804.63;4971897;28;98149;-26
2023/07/29 08:42:04;;;;;;;1.75;1.02;;;;;;;20.51;81.62;100799.88;4971855;28;98758;-26
2023/07/29 08:44:34;;;;;;;2.15;0.95;;;;;;;20.50;80.83;100803.66;4970509;28;97205;-26
2023/07/29 08:47:00;;;;;;;1.42;0.88;;;;;;;20.64;80.37;100810.50;4970616;28;96902;-26
2023/07/29 08:49:28;;;;;;;2.03;1.13;;;;;;;20.77;80.19;100799.06;4972198;28;97852;-27
2023/07/29 08:51:54;;;;;;;1.27;0.90;;;;;;;20.66;78.45;100802.94;4972198;28;97828;-26
2023/07/29 08:54:20;;;;;;;3.45;0.90;;;;;;;20.61;79.76;100799.81;4970500;28;96626;-27
2023/07/29 08:56:46;;;;;;;2.05;0.88;;;;;;;20.64;80.13;100801.38;4972323;28;96711;-26
2023/07/29 08:59:13;;;;;;;0.77;0.65;;;;;;;20.68;80.42;100795.38;4970295;28;101359;-28
2023/07/29 09:01:39;;;;;;;4.40;0.93;;;;;;;20.70;78.97;100806.25;4970800;28;101075;-27
2023/07/29 09:04:04;;;;;;;0.55;0.55;;;;;;;20.69;79.95;100799.88;4972268;28;96532;-26
2023/07/29 09:06:31;;;;;;;1.67;1.02;;;;;;;20.62;80.24;100808.91;4971940;28;96921;-26
2023/07/29 09:08:58;;;;;;;1.63;0.95;;;;;;;20.43;80.56;100805.34;4969679;28;100959;-27
2023/07/29 09:11:24;;;;;;;3.05;1.02;;;;;;;20.30;81.82;100810.38;4970473;28;101323;-26
2023/07/29 09:13:50;;;;;;;2.60;1.20;;;;;;;20.26;82.51;100818.09;4970332;28;96619;-30
2023/07/29 09:16:15;;;;;;;1.73;1.30;;;;;;;20.09;82.70;100806.06;4971175;28;96800;-28
2023/07/29 09:18:41;;;;;;;2.95;1.00;;;;;;;20.11;83.82;100812.25;4971002;28;98547;-26
2023/07/29 09:21:06;;;;;;;1.98;1.10;;;;;;;20.11;83.38;100809.50;4971769;28;97767;-26
2023/07/29 09:23:41;;;;;;;1.88;1.10;;;;;;;20.04;82.73;100813.03;4971448;28;97151;-27
2023/07/29 09:26:07;;;;;;;1.42;0.88;;;;;;;19.95;83.31;100817.63;4970720;28;96870;-28
2023/07/29 09:28:38;;;;;;;3.80;1.08;;;;;;;19.99;83.96;100821.75;4971191;28;97500;-27
2023/07/29 09:31:04;;;;;;;3.47;0.98;;;;;;;20.05;83.44;100820.28;4970239;28;98815;-27
2023/07/29 09:33:35;;;;;;;1.25;0.93;;;;;;;20.04;83.39;100804.81;4969726;28;97054;-27
2023/07/29 09:36:00;;;;;;;2.80;0.97;;;;;;;20.12;83.69;100805.75;4970938;28;96795;-32
2023/07/29 09:38:27;;;;;;;2.75;0.90;;;;;;;20.08;83.06;100818.06;4969000;28;98805;-28
2023/07/29 09:40:56;;;;;;;5.43;1.08;;;;;;;20.01;83.81;100814.22;4968306;28;100929;-26
2023/07/29 09:43:26;;;;;;;2.20;0.98;;;;;;;19.93;84.65;100820.53;4969443;28;96772;-27
2023/07/29 09:45:52;;;;;;;1.35;0.95;;;;;;;19.80;86.34;100827.41;4970017;28;96938;-33
2023/07/29 09:48:22;;;;;;;2.20;0.90;;;;;;;19.66;87.97;100821.41;4969608;28;99328;-27
2023/07/29 09:50:48;;;;;;;0.90;0.45;;;;;;;19.66;87.76;100835.16;4971214;28;101198;-29
2023/07/29 09:53:14;;;;;;;1.45;0.45;;;;;;;19.68;88.27;100824.00;4970898;28;97183;-28
2023/07/29 09:55:45;;;;;;;0.75;0.40;;;;;;;19.77;87.65;100820.34;4970591;28;96935;-28
2023/07/29 09:58:11;;;;;;;0.33;0.20;;;;;;;19.77;87.36;100817.59;4969800;28;101717;-30
2023/07/29 10:00:38;;;;;;;0.47;0.30;;;;;;;19.72;87.86;100814.44;4971819;28;99307;-27
2023/07/29 10:03:04;;;;;;;1.25;0.40;;;;;;;19.64;87.47;100815.19;4970181;28;97197;-32
2023/07/29 10:05:29;;;;;;;0.88;0.38;;;;;;;19.64;87.28;100822.53;4970815;28;97225;-27
2023/07/29 10:07:56;;;;;;;1.48;0.45;;;;;;;19.57;88.27;100836.06;4971832;28;99242;-27
2023/07/29 10:10:22;;;;;;;0.30;0.30;;;;;;;19.50;89.45;100833.06;4970930;28;100508;-26
2023/07/29 10:12:48;;;;;;;0.55;0.30;;;;;;;19.43;88.28;100834.69;4972759;28;96898;-28
2023/07/29 10:15:16;;;;;;;0.85;0.30;;;;;;;19.40;88.63;100834.09;4971210;28;97056;-27
2023/07/29 10:17:41;;;;;;;1.40;0.28;;;;;;;19.30;89.44;100831.41;4970504;28;101426;-27
2023/07/29 10:20:09;;;;;;;0.20;0.20;;;;;;;19.29;89.69;100836.03;4973583;28;99255;-26
2023/07/29 10:22:42;;;;;;;0.52;0.40;;;;;;;19.23;90.70;100838.53;4973669;28;96527;-26
2023/07/29 10:25:22;;;;;;;0.47;0.30;;;;;;;19.20;90.31;100839.69;4974058;28;96675;-27
2023/07/29 10:27:53;;;;;;;0.35;0.20;;;;;;;19.20;90.47;100838.84;4972108;28;101223;-26
2023/07/29 10:30:18;;;;;;;0.95;0.52;;;;;;;19.16;91.32;100831.91;4972502;28;100974;-26
2023/07/29 10:32:45;;;;;;;3.15;0.50;;;;;;;19.10;91.02;100831.50;4974338;28;96510;-27
2023/07/29 10:35:14;;;;;;;1.38;0.55;;;;;;;19.08;91.77;100835.41;4972530;28;96901;-26
2023/07/29 10:37:41;;;;;;;0.55;0.30;;;;;;;19.02;92.28;100839.63;4972370;28;99218;-26
2023/07/29 10:40:08;;;;;;;0.80;0.50;;;;;;;19.04;91.34;100843.09;4972703;28;101008;-28
2023/07/29 10:42:34;;;;;;;0.40;0.30;;;;;;;18.93;92.20;100836.91;4972506;28;96588;-26
2023/07/29 10:45:00;;;;;;;3.15;0.80;;;;;;;18.94;92.81;100847.72;4972556;28;96901;-26
2023/07/29 10:47:29;;;;;;;0.70;0.60;;;;;;;18.91;93.36;100847.19;4973502;28;97293;-26
2023/07/29 10:49:59;;;;;;;1.10;0.70;;;;;;;18.94;93.71;100847.72;4972382;28;101357;-26
2023/07/29 10:52:33;;;;;;;2.10;0.90;;;;;;;18.99;93.46;100841.78;4972331;28;96573;-26
2023/07/29 10:54:59;;;;;;;1.15;0.57;;;;;;;18.97;93.20;100835.59;4973843;28;96837;-26
2023/07/29 10:57:31;;;;;;;2.38;0.85;;;;;;;19.04;93.26;100828.47;4971795;28;101159;-26
2023/07/29 10:59:57;;;;;;;1.30;0.55;;;;;;;19.06;93.86;100835.56;4973725;28;97851;-26
2023/07/29 11:02:30;;;;;;;1.90;0.77;;;;;;;19.15;93.27;100846.66;4973541;28;96573;-27
2023/07/29 11:04:55;;;;;;;1.52;0.68;;;;;;;19.18;93.30;100835.38;4972684;28;96732;-26
2023/07/29 11:07:28;;;;;;;1.42;0.77;;;;;;;19.64;93.09;100834.44;4973406;28;97928;-26
2023/07/29 11:09:59;;;;;;;0.90;0.73;;;;;;;20.18;92.77;100828.13;4971876;28;101179;-26
2023/07/29 11:12:42;;;;;;;0.98;0.80;;;;;;;20.53;91.29;100830.00;4971688;28;97129;-26
2023/07/29 11:15:10;;;;;;;1.80;0.75;;;;;;;20.75;89.56;100824.00;4971901;28;97005;-28
2023/07/29 11:17:39;;;;;;;1.38;0.82;;;;;;;20.75;88.97;100824.00;4973306;28;97953;-26
2023/07/29 11:20:07;;;;;;;3.28;1.00;;;;;;;20.65;87.75;100827.88;4971720;28;99291;-26
2023/07/29 11:22:33;;;;;;;1.58;0.82;;;;;;;20.65;88.74;100831.50;4972135;28;96703;-26
2023/07/29 11:24:58;;;;;;;1.58;0.90;;;;;;;20.60;87.95;100822.88;4973318;28;96943;-26
2023/07/29 11:27:24;;;;;;;1.30;0.70;;;;;;;20.65;87.73;100822.38;4972879;28;99769;-28
2023/07/29 11:29:49;;;;;;;0.95;0.60;;;;;;;20.69;88.24;100818.25;4973654;28;97923;-26
2023/07/29 11:32:15;;;;;;;1.58;0.73;;;;;;;20.63;87.53;100817.03;4973142;28;96529;-26
2023/07/29 11:34:41;;;;;;;2.38;0.85;;;;;;;20.48;88.03;100816.72;4971161;28;96945;-26
2023/07/29 11:37:10;;;;;;;1.17;0.80;;;;;;;20.51;88.40;100824.66;4971181;28;100735;-26
2023/07/29 11:39:42;;;;;;;1.75;0.90;;;;;;;20.36;88.05;100810.59;4970877;28;101009;-26
2023/07/29 11:42:11;;;;;;;3.35;1.00;;;;;;;20.30;89.05;100819.47;4971801;28;96629;-27
2023/07/29 11:44:38;;;;;;;1.15;0.85;;;;;;;20.25;87.96;100824.59;4972521;28;96842;-30
2023/07/29 11:47:10;;;;;;;1.40;0.73;;;;;;;20.27;88.23;100819.81;4968794;28;100581;-28
2023/07/29 11:49:36;;;;;;;4.50;0.90;;;;;;;20.26;88.93;100818.09;4969130;28;101432;-26
2023/07/29 11:52:07;;;;;;;1.48;0.90;;;;;;;20.31;88.64;100834.97;4969590;28;96625;-30
2023/07/29 11:54:32;;;;;;;1.10;0.77;;;;;;;20.32;87.78;100835.84;4971853;28;97134;-28
2023/07/29 11:56:58;;;;;;;1.75;1.00;;;;;;;20.39;88.39;100831.44;4970889;28;97970;-27
2023/07/29 11:59:23;;;;;;;1.63;1.08;;;;;;;20.48;88.52;100837.88;4969195;28;99146;-27
2023/07/29 12:01:49;;;;;;;1.20;0.95;;;;;;;20.60;87.85;100828.38;4969686;28;97162;-30
2023/07/29 12:04:15;;;;;;;1.08;0.93;;;;;;;20.79;87.19;100817.16;4970477;28;97043;-27
2023/07/29 12:06:40;;;;;;;1.30;1.20;;;;;;;20.88;86.21;100820.81;4968436;28;100869;-28
2023/07/29 12:09:07;;;;;;;1.40;0.90;;;;;;;20.98;84.82;100820.72;4969074;28;97860;-36
2023/07/29 12:11:33;;;;;;;1.20;0.95;;;;;;;21.07;85.37;100811.47;4969455;28;97036;-30
2023/07/29 12:14:00;;;;;;;1.52;1.13;;;;;;;21.14;85.48;100820.81;4969534;28;97233;-30
2023/07/29 12:16:25;;;;;;;1.10;0.90;;;;;;;21.38;84.96;100809.03;4968402;28;100887;-27
2023/07/29 12:18:50;;;;;;;1.35;0.95;;;;;;;21.62;84.44;100815.69;4970429;28;97232;-27
2023/07/29 12:21:18;;;;;;;2.80;0.90;;;;;;;21.88;82.54;100817.47;4969939;28;96756;-29
2023/07/29 12:23:44;;;;;;;0.88;0.82;;;;;;;21.75;79.73;100804.19;4970280;28;96834;-26
2023/07/29 12:26:09;;;;;;;1.13;0.88;;;;;;;21.81;82.35;100811.78;4972242;28;96825;-26
2023/07/29 12:28:34;;;;;;;1.77;0.80;;;;;;;22.09;81.58;100805.97;4971858;28;98716;-26
2023/07/29 12:31:00;;;;;;;1.48;0.90;;;;;;;22.09;80.04;100804.06;4972355;28;96739;-27
2023/07/29 12:33:39;;;;;;;0.75;0.75;;;;;;;21.82;80.87;100797.81;4972730;28;96812;-28
2023/07/29 12:36:04;;;;;;;1.73;0.85;;;;;;;22.06;80.93;100810.78;4972179;28;99764;-26
2023/07/29 12:38:30;;;;;;;1.90;0.82;;;;;;;22.36;79.28;100811.19;4972036;28;98619;-27
2023/07/29 12:40:56;;;;;;;2.05;0.70;;;;;;;22.47;78.32;100804.44;4972463;28;96508;-26
2023/07/29 12:43:22;;;;;;;1.40;0.80;;;;;;;22.73;77.78;100784.06;4971205;28;96845;-27
2023/07/29 12:45:50;;;;;;;1.98;1.00;;;;;;;22.90;77.13;100800.41;4971987;28;98961;-26
2023/07/29 12:48:16;;;;;;;1.20;0.80;;;;;;;23.02;76.61;100800.94;4972231;28;97948;-27
2023/07/29 12:50:41;;;;;;;0.55;0.55;;;;;;;22.92;76.48;100799.41;4971547;28;96579;-26
2023/07/29 12:53:08;;;;;;;0.82;0.68;;;;;;;22.69;77.25;100805.63;4972413;28;96403;-27
2023/07/29 12:55:33;;;;;;;1.65;1.00;;;;;;;22.54;77.65;100804.63;4970404;28;99364;-26
2023/07/29 12:57:59;;;;;;;3.67;1.05;;;;;;;22.54;78.06;100808.25;4971802;28;98095;-27
2023/07/29 13:00:24;;;;;;;2.60;0.80;;;;;;;22.77;77.73;100813.94;4971818;28;96561;-27
2023/07/29 13:02:50;;;;;;;0.73;0.65;;;;;;;23.09;76.40;100821.28;4970621;28;96929;-27
2023/07/29 13:05:15;;;;;;;2.50;0.85;;;;;;;23.14;71.96;100801.41;4971961;28;97871;-26
2023/07/29 13:07:41;;;;;;;1.45;0.55;;;;;;;23.12;75.14;100820.09;4972154;28;97786;-27
2023/07/29 13:10:08;;;;;;;0.70;0.45;;;;;;;23.06;75.25;100815.28;4970700;28;96520;-27
2023/07/29 13:12:33;;;;;;;1.75;0.65;;;;;;;23.02;74.25;100813.91;4970461;28;96871;-26
2023/07/29 13:14:59;;;;;;;0.40;0.35;;;;;;;23.18;75.30;100819.38;4971326;28;97353;-30
2023/07/29 13:17:24;;;;;;;0.90;0.50;;;;;;;23.12;73.37;100809.06;4971906;28;97792;-26
2023/07/29 13:19:50;;;;;;;3.00;1.05;;;;;;;23.11;73.95;100797.13;4971806;28;96495;-26
2023/07/29 13:22:15;;;;;;;3.92;0.63;;;;;;;23.40;73.11;100800.28;4971737;28;96836;-27
2023/07/29 13:24:40;;;;;;;2.10;0.82;;;;;;;23.41;72.85;100797.38;4972243;28;97354;-27
2023/07/29 13:27:06;;;;;;;1.67;0.65;;;;;;;23.49;71.31;100793.69;4973620;28;100980;-26
2023/07/29 13:29:32;;;;;;;2.03;0.60;;;;;;;23.50;71.28;100789.88;4974879;28;96611;-27
2023/07/29 13:31:57;;;;;;;1.85;0.63;;;;;;;23.52;72.07;100788.63;4975470;28;96795;-27
2023/07/29 13:34:22;;;;;;;0.80;0.40;;;;;;;23.48;71.76;100789.22;4975015;28;97714;-26
2023/07/29 13:36:48;;;;;;;0.75;0.40;;;;;;;23.42;71.58;100799.06;4973443;28;97955;-26
2023/07/29 13:39:13;;;;;;;0.35;0.30;;;;;;;23.38;68.58;100792.16;4974503;28;96499;-26
2023/07/29 13:41:38;;;;;;;0.60;0.50;;;;;;;23.41;70.41;100790.97;4974930;28;96875;-27
2023/07/29 13:44:04;;;;;;;2.80;0.60;;;;;;;23.22;68.90;100793.13;4974579;28;98876;-26
2023/07/29 13:46:29;;;;;;;0.70;0.40;;;;;;;23.11;70.82;100786.06;4975021;28;97271;-26
2023/07/29 13:48:55;;;;;;;2.20;0.45;;;;;;;23.03;70.19;100791.63;4975094;28;96534;-26
2023/07/29 13:51:20;;;;;;;0.93;0.40;;;;;;;22.84;69.72;100790.09;4975098;28;96813;-26
2023/07/29 13:53:46;;;;;;;0.73;0.35;;;;;;;22.76;69.78;100800.28;4974639;28;98016;-26
2023/07/29 13:56:11;;;;;;;2.05;0.60;;;;;;;22.83;69.69;100802.16;4974459;28;99251;-26
2023/07/29 13:58:36;;;;;;;0.90;0.55;;;;;;;22.99;70.70;100792.16;4974112;28;96741;-26
2023/07/29 14:01:02;;;;;;;0.45;0.30;;;;;;;23.22;69.96;100792.25;4974904;28;96817;-27
2023/07/29 14:03:27;;;;;;;0.25;0.25;;;;;;;23.21;69.42;100780.31;4974218;28;97867;-28
2023/07/29 14:05:52;;;;;;;0.40;0.35;;;;;;;23.24;68.55;100785.50;4974606;28;98333;-27
2023/07/29 14:08:18;;;;;;;0.85;0.47;;;;;;;23.27;68.20;100790.66;4974552;28;96606;-26
2023/07/29 14:10:43;;;;;;;1.30;0.50;;;;;;;23.25;66.65;100780.84;4974519;28;96886;-26
2023/07/29 14:13:08;;;;;;;2.05;0.47;;;;;;;23.23;67.65;100799.50;4974204;28;97931;-27
2023/07/29 14:15:34;;;;;;;1.00;0.52;;;;;;;23.13;68.13;100796.09;4974434;28;97855;-26
2023/07/29 14:18:00;;;;;;;0.50;0.38;;;;;;;23.08;67.53;100800.25;4974189;28;96540;-27
2023/07/29 14:20:25;;;;;;;0.60;0.50;;;;;;;23.18;66.49;100797.28;4973287;28;96825;-27
2023/07/29 14:22:51;;;;;;;0.55;0.43;;;;;;;23.11;66.81;100788.81;4974314;28;97440;-27
2023/07/29 14:25:16;;;;;;;0.38;0.38;;;;;;;23.14;65.52;100798.66;4974315;28;97375;-27
2023/07/29 14:27:42;;;;;;;0.80;0.60;;;;;;;23.06;66.69;100791.25;4973172;28;96798;-27
2023/07/29 14:30:07;;;;;;;0.82;0.40;;;;;;;22.95;67.75;100796.28;4974445;28;96529;-27
2023/07/29 14:32:33;;;;;;;0.90;0.32;;;;;;;22.89;67.45;100804.22;4974150;28;97547;-26
2023/07/29 14:35:03;;;;;;;0.65;0.32;;;;;;;22.72;67.05;100804.44;4973916;28;97355;-26
2023/07/29 14:37:28;;;;;;;1.40;0.32;;;;;;;22.66;67.65;100811.50;4973587;28;96640;-26
2023/07/29 14:39:54;;;;;;;1.52;0.40;;;;;;;22.58;68.09;100811.53;4973872;28;96846;-26
2023/07/29 14:42:19;;;;;;;0.70;0.55;;;;;;;22.47;68.19;100799.78;4973726;28;97383;-26
2023/07/29 14:44:44;;;;;;;1.13;0.35;;;;;;;22.52;67.30;100801.19;4974196;28;97913;-26
2023/07/29 14:47:10;;;;;;;0.82;0.60;;;;;;;22.51;68.16;100805.84;4973810;28;96704;-26
2023/07/29 14:49:35;;;;;;;1.27;0.60;;;;;;;22.60;67.07;100807.56;4973777;28;96845;-27
2023/07/29 14:52:00;;;;;;;1.95;0.80;;;;;;;22.61;68.24;100801.00;4973236;28;97997;-26
2023/07/29 14:54:26;;;;;;;0.85;0.55;;;;;;;22.64;67.49;100800.66;4973715;28;97450;-26
2023/07/29 14:56:51;;;;;;;1.40;0.50;;;;;;;22.74;68.89;100805.09;4973508;28;96595;-26
2023/07/29 14:59:17;;;;;;;2.10;0.68;;;;;;;22.72;68.06;100805.31;4973588;28;96817;-27
2023/07/29 15:01:42;;;;;;;0.98;0.50;;;;;;;22.79;68.61;100805.47;4973764;28;97854;-26
2023/07/29 15:04:07;;;;;;;1.50;0.90;;;;;;;22.90;68.21;100810.59;4973673;28;97193;-26
2023/07/29 15:06:33;;;;;;;2.50;0.80;;;;;;;22.85;68.84;100807.50;4973478;28;96553;-27
2023/07/29 15:08:58;;;;;;;0.55;0.52;;;;;;;22.66;68.41;100795.81;4974032;28;96834;-27
2023/07/29 15:11:24;;;;;;;1.83;0.75;;;;;;;22.54;69.15;100804.63;4973025;28;99304;-28
2023/07/29 15:13:49;;;;;;;1.73;0.93;;;;;;;22.53;69.31;100806.53;4973202;28;99159;-26
2023/07/29 15:16:14;;;;;;;3.00;0.73;;;;;;;22.47;68.98;100793.41;4973379;28;96529;-29
2023/07/29 15:18:40;;;;;;;1.20;0.75;;;;;;;22.48;69.97;100796.00;4973563;28;96785;-26
2023/07/29 15:21:05;;;;;;;1.15;0.80;;;;;;;22.61;69.57;100786.34;4973248;28;97919;-27
2023/07/29 15:23:30;;;;;;;2.38;0.73;;;;;;;22.68;69.55;100788.22;4973228;28;97726;-28
2023/07/29 15:25:56;;;;;;;0.93;0.70;;;;;;;22.65;68.60;100785.81;4973168;28;96515;-26
2023/07/29 15:28:22;;;;;;;2.15;1.00;;;;;;;22.51;69.63;100782.91;4972949;28;96793;-27
2023/07/29 15:30:47;;;;;;;1.67;1.27;;;;;;;22.43;70.53;100776.34;4973139;28;98377;-27
2023/07/29 15:33:13;;;;;;;1.80;0.90;;;;;;;22.37;70.65;100788.06;4973356;28;99089;-27
2023/07/29 15:35:39;;;;;;;1.55;0.80;;;;;;;22.37;70.79;100781.69;4971696;28;96702;-27
2023/07/29 15:38:05;;;;;;;1.90;0.90;;;;;;;22.38;70.36;100791.69;4971826;28;96984;-27
2023/07/29 15:40:31;;;;;;;0.60;0.50;;;;;;;22.40;70.86;100782.19;4971012;28;101312;-27
2023/07/29 15:42:56;;;;;;;0.93;0.50;;;;;;;22.45;70.95;100779.81;4973178;28;97815;-27
2023/07/29 15:45:22;;;;;;;1.98;0.88;;;;;;;22.53;70.78;100786.34;4971741;28;96560;-27
2023/07/29 15:47:47;;;;;;;1.48;0.75;;;;;;;22.65;70.22;100782.19;4972342;28;96879;-28
2023/07/29 15:50:12;;;;;;;1.55;0.50;;;;;;;22.65;68.96;100782.19;4973165;28;97492;-27
2023/07/29 15:52:42;;;;;;;4.25;0.70;;;;;;;22.59;67.55;100780.13;4973002;28;98291;-27
2023/07/29 15:55:08;;;;;;;2.30;0.82;;;;;;;22.57;68.44;100773.91;4971361;28;96787;-27
2023/07/29 15:57:33;;;;;;;2.00;0.90;;;;;;;22.64;67.56;100777.69;4971409;28;97016;-27
2023/07/29 15:59:59;;;;;;;1.65;0.82;;;;;;;22.59;67.47;100769.06;4972552;28;99294;-27
2023/07/29 16:02:25;;;;;;;1.90;0.75;;;;;;;22.65;68.42;100774.75;4972737;28;97780;-27
2023/07/29 16:04:51;;;;;;;0.82;0.50;;;;;;;22.59;68.63;100774.59;4972482;28;96652;-27
2023/07/29 16:07:16;;;;;;;1.10;0.45;;;;;;;22.58;68.26;100781.16;4971177;28;96713;-28
2023/07/29 16:09:41;;;;;;;0.80;0.50;;;;;;;22.57;68.04;100777.56;4972364;28;97889;-27
2023/07/29 16:12:07;;;;;;;1.30;0.55;;;;;;;22.60;67.58;100784.63;4972473;28;99893;-27
2023/07/29 16:14:32;;;;;;;1.02;0.65;;;;;;;22.54;67.44;100785.31;4971376;28;96540;-27
2023/07/29 16:16:58;;;;;;;0.80;0.55;;;;;;;22.55;67.54;100790.66;4972877;28;96787;-27
2023/07/29 16:19:26;;;;;;;2.03;0.68;;;;;;;22.51;67.84;100791.19;4972552;28;97403;-27
2023/07/29 16:21:52;;;;;;;5.60;1.10;;;;;;;22.50;66.95;100783.91;4971336;28;100872;-27
2023/07/29 16:24:18;;;;;;;1.83;0.80;;;;;;;22.48;67.66;100784.13;4970983;28;96726;-27
2023/07/29 16:26:43;;;;;;;1.30;0.60;;;;;;;22.45;66.89;100801.88;4972336;28;96848;-27
2023/07/29 16:29:09;;;;;;;1.23;0.55;;;;;;;22.37;66.87;100796.34;4971145;28;99936;-27
2023/07/29 16:31:35;;;;;;;0.88;0.63;;;;;;;22.38;66.76;100798.09;4972396;28;97896;-27
2023/07/29 16:34:00;;;;;;;2.05;0.70;;;;;;;22.35;66.97;100792.03;4972436;28;96572;-27
2023/07/29 16:36:26;;;;;;;1.00;0.45;;;;;;;22.32;67.22;100789.63;4972170;28;97009;-27
2023/07/29 16:38:51;;;;;;;2.53;0.60;;;;;;;22.33;66.87;100788.59;4972150;28;96816;-26
2023/07/29 16:41:17;;;;;;;2.30;0.90;;;;;;;22.31;66.74;100802.59;4972226;28;98028;-27
2023/07/29 16:43:42;;;;;;;4.72;0.90;;;;;;;22.18;64.34;100805.81;4972191;28;96456;-27
2023/07/29 16:46:07;;;;;;;1.98;0.68;;;;;;;22.23;64.96;100805.31;4972631;28;96820;-26
2023/07/29 16:48:33;;;;;;;2.75;1.02;;;;;;;22.24;64.49;100820.88;4972155;28;97982;-27
2023/07/29 16:50:58;;;;;;;2.72;0.77;;;;;;;22.16;63.04;100804.25;4972228;28;97775;-27
2023/07/29 16:53:25;;;;;;;1.45;0.70;;;;;;;22.17;62.13;100819.78;4971627;28;96598;-27
2023/07/29 16:55:51;;;;;;;1.40;0.65;;;;;;;22.05;61.97;100811.84;4970678;28;96901;-27
2023/07/29 16:58:16;;;;;;;1.27;0.80;;;;;;;21.95;62.34;100800.09;4971772;28;97984;-27
2023/07/29 17:00:42;;;;;;;1.17;0.63;;;;;;;21.95;61.97;100813.00;4975289;28;99621;-26
2023/07/29 17:03:07;;;;;;;3.33;0.77;;;;;;;21.93;63.04;100813.19;4975393;28;96597;-27
2023/07/29 17:05:33;;;;;;;3.85;0.73;;;;;;;21.90;62.93;100809.91;4975408;28;96858;-26
2023/07/29 17:07:58;;;;;;;1.48;0.82;;;;;;;21.80;61.13;100821.94;4973825;28;100948;-27
2023/07/29 17:10:24;;;;;;;2.45;0.93;;;;;;;21.74;61.40;100830.03;4975511;28;99185;-26
2023/07/29 17:12:49;;;;;;;2.00;0.80;;;;;;;21.71;62.54;100835.88;4974114;28;96539;-27
2023/07/29 17:15:15;;;;;;;3.45;0.70;;;;;;;21.62;61.87;100822.06;4975261;28;96815;-27
2023/07/29 17:17:40;;;;;;;2.05;0.40;;;;;;;21.59;60.64;100816.88;4974962;28;97824;-30
2023/07/29 17:20:06;;;;;;;4.53;0.90;;;;;;;21.56;62.19;100839.28;4975314;28;98016;-28
2023/07/29 17:22:33;;;;;;;2.35;0.88;;;;;;;21.48;60.31;100825.47;4973851;28;96597;-27
2023/07/29 17:24:59;;;;;;;3.72;1.10;;;;;;;21.41;61.65;100825.25;4975398;28;96769;-27
2023/07/29 17:27:24;;;;;;;3.58;1.00;;;;;;;21.48;61.45;100839.25;4973625;28;101298;-27
2023/07/29 17:29:50;;;;;;;3.20;0.73;;;;;;;21.46;60.51;100823.91;4974947;28;97945;-28
2023/07/29 17:32:15;;;;;;;3.05;0.98;;;;;;;21.37;61.89;100822.97;4975278;28;96511;-27
2023/07/29 17:34:40;;;;;;;2.97;0.63;;;;;;;21.37;62.13;100828.47;4975489;28;96777;-26
2023/07/29 17:37:06;;;;;;;1.88;0.88;;;;;;;21.33;62.08;100822.44;4974887;28;98193;-28
2023/07/29 17:39:31;;;;;;;3.45;1.15;;;;;;;21.29;62.08;100820.19;4975036;28;97748;-28
2023/07/29 17:41:57;;;;;;;1.38;0.75;;;;;;;21.23;61.95;100831.84;4974337;28;96581;-27
2023/07/29 17:44:22;;;;;;;5.38;0.52;;;;;;;21.21;62.01;100835.66;4974951;28;96813;-27
2023/07/29 17:46:47;;;;;;;3.55;0.65;;;;;;;21.08;61.10;100824.22;4974582;28;99292;-27
2023/07/29 17:49:13;;;;;;;3.60;1.25;;;;;;;21.05;61.71;100840.22;4974956;28;97783;-27
2023/07/29 17:51:38;;;;;;;4.68;1.20;;;;;;;21.00;61.91;100825.03;4975050;28;96494;-28
2023/07/29 17:54:04;;;;;;;1.92;0.98;;;;;;;21.03;62.52;100845.00;4974801;28;96916;-27
2023/07/29 17:56:29;;;;;;;1.73;0.68;;;;;;;20.98;61.92;100829.84;4974355;28;97940;-27
2023/07/29 17:58:55;;;;;;;2.45;0.75;;;;;;;20.91;62.23;100819.63;4974430;28;97764;-27
2023/07/29 18:01:20;;;;;;;1.83;0.65;;;;;;;20.90;62.68;100837.16;4974577;28;96617;-26
2023/07/29 18:03:45;;;;;;;5.80;0.77;;;;;;;20.90;62.63;100832.50;4974801;28;96833;-27
2023/07/29 18:06:15;;;;;;;3.97;1.00;;;;;;;20.85;63.47;100842.31;4974039;28;98413;-27
2023/07/29 18:08:41;;;;;;;2.15;0.88;;;;;;;20.74;62.41;100826.94;4972879;28;102460;-27
2023/07/29 18:11:06;;;;;;;2.70;0.73;;;;;;;20.71;63.89;100838.25;4973840;28;96519;-26
2023/07/29 18:13:34;;;;;;;2.97;0.85;;;;;;;20.68;63.49;100844.94;4974035;28;96952;-27
2023/07/29 18:16:00;;;;;;;3.63;0.93;;;;;;;20.61;63.90;100831.97;4970472;28;100936;-29
2023/07/29 18:18:25;;;;;;;2.47;0.70;;;;;;;20.58;62.67;100842.28;4970273;28;101074;-29
2023/07/29 18:20:51;;;;;;;2.70;0.70;;;;;;;20.48;63.28;100838.72;4972269;28;96969;-29
2023/07/29 18:23:17;;;;;;;2.65;1.10;;;;;;;20.44;63.19;100844.72;4972475;28;96795;-28
2023/07/29 18:25:43;;;;;;;1.88;0.73;;;;;;;20.37;63.67;100852.72;4970588;28;101157;-28
2023/07/29 18:28:08;;;;;;;4.05;0.77;;;;;;;20.30;64.11;100854.38;4971563;28;97785;-27
2023/07/29 18:30:34;;;;;;;2.20;0.68;;;;;;;20.25;64.09;100854.84;4973463;28;96634;-27
2023/07/29 18:33:03;;;;;;;6.28;1.30;;;;;;;20.21;63.53;100847.94;4972642;28;97039;-27
2023/07/29 18:35:29;;;;;;;5.43;1.05;;;;;;;20.18;63.88;100847.41;4972551;28;101473;-27
2023/07/29 18:37:57;;;;;;;2.38;0.80;;;;;;;20.23;63.95;100859.66;4972380;28;100914;-27
2023/07/29 18:40:24;;;;;;;4.40;1.00;;;;;;;20.18;64.29;100851.00;4972761;28;96752;-27
2023/07/29 18:42:49;;;;;;;3.53;0.95;;;;;;;20.13;64.33;100850.63;4956349;28;96780;-26
2023/07/29 18:45:15;;;;;;;1.77;0.85;;;;;;;20.11;64.55;100859.00;4974030;28;98035;-27
2023/07/29 18:47:40;;;;;;;1.73;0.65;;;;;;;20.03;64.81;100861.69;4973861;28;99256;-27
2023/07/29 18:50:06;;;;;;;2.78;0.70;;;;;;;20.09;65.01;100873.94;4973992;28;96624;-27
2023/07/29 18:52:31;;;;;;;2.28;0.80;;;;;;;20.07;65.27;100870.47;4973807;28;96830;-27
2023/07/29 18:54:58;;;;;;;2.72;0.95;;;;;;;20.07;65.20;100870.47;4973165;28;99186;-27
2023/07/29 18:57:24;;;;;;;2.42;1.17;;;;;;;20.01;65.21;100877.47;4971901;28;98876;-32
2023/07/29 18:59:50;;;;;;;2.03;0.63;;;;;;;20.00;65.41;100877.63;4972268;28;96794;-27
2023/07/29 19:02:15;;;;;;;3.53;0.95;;;;;;;19.97;64.83;100881.53;4973921;28;96827;-27
2023/07/29 19:04:43;;;;;;;1.48;0.75;;;;;;;19.85;65.02;100875.41;4973329;28;97435;-27
2023/07/29 19:07:09;;;;;;;2.50;0.93;;;;;;;19.82;64.34;100886.72;4972038;28;101212;-27
2023/07/29 19:09:34;;;;;;;2.20;0.75;;;;;;;19.73;64.46;100879.38;4973488;28;96524;-27
2023/07/29 19:11:59;;;;;;;2.15;0.85;;;;;;;19.70;65.31;100882.44;4973941;28;96822;-27
2023/07/29 19:14:25;;;;;;;4.75;1.05;;;;;;;19.68;65.39;100898.22;4973457;28;97972;-27
2023/07/29 19:16:50;;;;;;;1.77;0.77;;;;;;;19.66;64.80;100886.47;4973240;28;99345;-30
2023/07/29 19:19:16;;;;;;;2.97;0.88;;;;;;;19.66;65.54;100883.72;4973103;28;96743;-30
2023/07/29 19:21:41;;;;;;;2.92;0.98;;;;;;;19.57;65.51;100890.13;4973374;28;96656;-27
2023/07/29 19:24:06;;;;;;;1.73;0.45;;;;;;;19.57;65.55;100893.78;4973344;28;97407;-27
2023/07/29 19:26:32;;;;;;;1.48;0.50;;;;;;;19.51;66.23;100886.13;4973007;28;99692;-27
2023/07/29 19:28:58;;;;;;;2.10;0.73;;;;;;;19.47;66.07;100890.19;4972708;28;96575;-27
2023/07/29 19:31:24;;;;;;;3.85;0.80;;;;;;;19.40;66.08;100881.69;4973265;28;96805;-27
2023/07/29 19:33:51;;;;;;;2.05;0.70;;;;;;;19.40;66.43;100892.69;4972961;28;99601;-27
2023/07/29 19:36:17;;;;;;;3.65;1.08;;;;;;;19.42;66.57;100900.75;4973281;28;97772;-27
2023/07/29 19:38:42;;;;;;;1.73;0.77;;;;;;;19.36;66.78;100890.41;4973184;28;96434;-27
2023/07/29 19:41:08;;;;;;;4.32;0.77;;;;;;;19.38;66.98;100911.19;4973289;28;96734;-27
2023/07/29 19:43:33;;;;;;;3.63;0.90;;;;;;;19.32;66.92;100903.53;4972589;28;97825;-27
2023/07/29 19:46:03;;;;;;;4.65;1.50;;;;;;;19.36;67.04;100904.13;4972952;28;97355;-27
2023/07/29 19:48:28;;;;;;;3.10;0.82;;;;;;;19.26;67.04;100907.78;4971413;28;96621;-27